sensor_id;sensor_type;location;lat;lon;timestamp;P1;durP1;ratioP1;P2;durP2;ratioP2
13218;SDS011;6674;49.152;11.918;2023-03-20T00:00:38;2.33;;;2.13;;
13218;SDS011;6674;49.152;11.918;2023-03-20T00:03:08;3.00;;;2.70;;
13218;SDS011;6674;49.152;11.918;2023-03-20T00:05:35;2.97;;;2.77;;
13218;SDS011;6674;49.152;11.918;2023-03-20T00:08:01;2.60;;;2.40;;
13218;SDS011;6674;49.152;11.918;2023-03-20T00:10:30;2.60;;;2.40;;
13218;SDS011;6674;49.152;11.918;2023-03-20T00:13:01;2.80;;;2.60;;
13218;SDS011;6674;49.152;11.918;2023-03-20T00:15:29;2.90;;;2.70;;
13218;SDS011;6674;49.152;11.918;2023-03-20T00:17:58;2.97;;;2.67;;
13218;SDS011;6674;49.152;11.918;2023-03-20T00:20:24;3.40;;;2.63;;
13218;SDS011;6674;49.152;11.918;2023-03-20T00:22:51;2.97;;;2.77;;
13218;SDS011;6674;49.152;11.918;2023-03-20T00:25:19;3.10;;;2.80;;
13218;SDS011;6674;49.152;11.918;2023-03-20T00:27:47;2.60;;;2.33;;
13218;SDS011;6674;49.152;11.918;2023-03-20T00:30:20;2.67;;;2.20;;
13218;SDS011;6674;49.152;11.918;2023-03-20T00:32:52;1.90;;;1.80;;
13218;SDS011;6674;49.152;11.918;2023-03-20T00:35:22;2.43;;;2.23;;
13218;SDS011;6674;49.152;11.918;2023-03-20T00:37:50;2.50;;;2.10;;
13218;SDS011;6674;49.152;11.918;2023-03-20T00:40:18;2.53;;;2.33;;
13218;SDS011;6674;49.152;11.918;2023-03-20T00:42:46;2.70;;;2.50;;
13218;SDS011;6674;49.152;11.918;2023-03-20T00:45:15;3.43;;;2.80;;
13218;SDS011;6674;49.152;11.918;2023-03-20T00:47:46;2.60;;;2.40;;
13218;SDS011;6674;49.152;11.918;2023-03-20T00:50:16;2.60;;;2.40;;
13218;SDS011;6674;49.152;11.918;2023-03-20T00:52:46;2.70;;;2.50;;
13218;SDS011;6674;49.152;11.918;2023-03-20T00:55:13;3.43;;;2.63;;
13218;SDS011;6674;49.152;11.918;2023-03-20T00:57:41;2.83;;;2.40;;
13218;SDS011;6674;49.152;11.918;2023-03-20T01:00:17;2.90;;;2.70;;
13218;SDS011;6674;49.152;11.918;2023-03-20T01:02:51;3.00;;;2.70;;
13218;SDS011;6674;49.152;11.918;2023-03-20T01:05:20;2.80;;;2.60;;
13218;SDS011;6674;49.152;11.918;2023-03-20T01:07:47;3.40;;;3.10;;
13218;SDS011;6674;49.152;11.918;2023-03-20T01:10:14;2.80;;;2.60;;
13218;SDS011;6674;49.152;11.918;2023-03-20T01:12:41;3.00;;;2.80;;
13218;SDS011;6674;49.152;11.918;2023-03-20T01:15:14;3.10;;;2.80;;
13218;SDS011;6674;49.152;11.918;2023-03-20T01:17:43;3.50;;;3.20;;
13218;SDS011;6674;49.152;11.918;2023-03-20T01:20:14;2.83;;;2.60;;
13218;SDS011;6674;49.152;11.918;2023-03-20T01:22:44;3.60;;;3.20;;
13218;SDS011;6674;49.152;11.918;2023-03-20T01:25:11;3.07;;;2.77;;
13218;SDS011;6674;49.152;11.918;2023-03-20T01:27:37;2.70;;;2.50;;
13218;SDS011;6674;49.152;11.918;2023-03-20T01:32:47;2.73;;;2.47;;
13218;SDS011;6674;49.152;11.918;2023-03-20T01:35:17;2.57;;;2.37;;
13218;SDS011;6674;49.152;11.918;2023-03-20T01:37:45;2.80;;;2.60;;
13218;SDS011;6674;49.152;11.918;2023-03-20T01:40:15;2.60;;;2.40;;
13218;SDS011;6674;49.152;11.918;2023-03-20T01:42:49;3.27;;;2.93;;
13218;SDS011;6674;49.152;11.918;2023-03-20T01:45:19;3.40;;;3.10;;
13218;SDS011;6674;49.152;11.918;2023-03-20T01:47:48;2.83;;;2.53;;
13218;SDS011;6674;49.152;11.918;2023-03-20T01:50:22;2.30;;;2.10;;
13218;SDS011;6674;49.152;11.918;2023-03-20T01:52:54;1.90;;;1.80;;
13218;SDS011;6674;49.152;11.918;2023-03-20T01:55:29;1.97;;;1.87;;
13218;SDS011;6674;49.152;11.918;2023-03-20T01:57:58;2.37;;;2.17;;
13218;SDS011;6674;49.152;11.918;2023-03-20T02:00:27;1.90;;;1.80;;
13218;SDS011;6674;49.152;11.918;2023-03-20T02:02:54;1.93;;;1.73;;
13218;SDS011;6674;49.152;11.918;2023-03-20T02:05:23;2.33;;;2.20;;
13218;SDS011;6674;49.152;11.918;2023-03-20T02:07:53;2.77;;;2.57;;
13218;SDS011;6674;49.152;11.918;2023-03-20T02:10:24;2.50;;;2.30;;
13218;SDS011;6674;49.152;11.918;2023-03-20T02:12:51;3.30;;;2.77;;
13218;SDS011;6674;49.152;11.918;2023-03-20T02:15:18;2.50;;;2.30;;
13218;SDS011;6674;49.152;11.918;2023-03-20T02:17:44;2.13;;;2.03;;
13218;SDS011;6674;49.152;11.918;2023-03-20T02:20:14;2.37;;;2.17;;
13218;SDS011;6674;49.152;11.918;2023-03-20T02:23:00;2.70;;;2.50;;
13218;SDS011;6674;49.152;11.918;2023-03-20T02:28:44;2.53;;;2.33;;
13218;SDS011;6674;49.152;11.918;2023-03-20T02:35:01;2.90;;;2.70;;
13218;SDS011;6674;49.152;11.918;2023-03-20T02:37:41;2.33;;;2.10;;
13218;SDS011;6674;49.152;11.918;2023-03-20T02:40:20;2.73;;;2.53;;
13218;SDS011;6674;49.152;11.918;2023-03-20T02:42:56;3.20;;;2.90;;
13218;SDS011;6674;49.152;11.918;2023-03-20T02:45:28;3.63;;;3.17;;
13218;SDS011;6674;49.152;11.918;2023-03-20T02:48:01;3.03;;;2.37;;
13218;SDS011;6674;49.152;11.918;2023-03-20T02:50:40;2.93;;;2.73;;
13218;SDS011;6674;49.152;11.918;2023-03-20T02:53:18;2.87;;;2.67;;
13218;SDS011;6674;49.152;11.918;2023-03-20T02:55:53;3.33;;;2.93;;
13218;SDS011;6674;49.152;11.918;2023-03-20T02:58:25;2.80;;;2.60;;
13218;SDS011;6674;49.152;11.918;2023-03-20T03:00:56;2.90;;;2.70;;
13218;SDS011;6674;49.152;11.918;2023-03-20T03:03:27;2.80;;;2.60;;
13218;SDS011;6674;49.152;11.918;2023-03-20T03:05:59;2.80;;;2.60;;
13218;SDS011;6674;49.152;11.918;2023-03-20T03:08:32;2.90;;;2.70;;
13218;SDS011;6674;49.152;11.918;2023-03-20T03:11:05;2.63;;;2.43;;
13218;SDS011;6674;49.152;11.918;2023-03-20T03:13:34;2.80;;;2.60;;
13218;SDS011;6674;49.152;11.918;2023-03-20T03:16:04;2.80;;;2.60;;
13218;SDS011;6674;49.152;11.918;2023-03-20T03:18:34;2.90;;;2.70;;
13218;SDS011;6674;49.152;11.918;2023-03-20T03:21:03;2.80;;;2.60;;
13218;SDS011;6674;49.152;11.918;2023-03-20T03:23:35;2.60;;;2.40;;
13218;SDS011;6674;49.152;11.918;2023-03-20T03:26:08;2.80;;;2.60;;
13218;SDS011;6674;49.152;11.918;2023-03-20T03:28:39;3.20;;;2.90;;
13218;SDS011;6674;49.152;11.918;2023-03-20T03:31:10;3.30;;;3.10;;
13218;SDS011;6674;49.152;11.918;2023-03-20T03:33:39;3.77;;;3.47;;
13218;SDS011;6674;49.152;11.918;2023-03-20T03:36:10;4.40;;;4.00;;
13218;SDS011;6674;49.152;11.918;2023-03-20T03:38:43;3.73;;;3.43;;
13218;SDS011;6674;49.152;11.918;2023-03-20T03:41:18;3.57;;;3.27;;
13218;SDS011;6674;49.152;11.918;2023-03-20T03:43:49;3.83;;;3.07;;
13218;SDS011;6674;49.152;11.918;2023-03-20T03:46:23;3.60;;;3.30;;
13218;SDS011;6674;49.152;11.918;2023-03-20T03:48:55;4.07;;;3.77;;
13218;SDS011;6674;49.152;11.918;2023-03-20T03:51:24;3.50;;;3.27;;
13218;SDS011;6674;49.152;11.918;2023-03-20T03:53:58;3.90;;;3.60;;
13218;SDS011;6674;49.152;11.918;2023-03-20T03:56:29;3.50;;;3.20;;
13218;SDS011;6674;49.152;11.918;2023-03-20T03:59:00;3.30;;;3.00;;
13218;SDS011;6674;49.152;11.918;2023-03-20T04:01:30;4.43;;;3.97;;
13218;SDS011;6674;49.152;11.918;2023-03-20T04:03:59;4.13;;;3.73;;
13218;SDS011;6674;49.152;11.918;2023-03-20T04:06:29;4.90;;;4.50;;
13218;SDS011;6674;49.152;11.918;2023-03-20T04:08:58;5.87;;;5.37;;
13218;SDS011;6674;49.152;11.918;2023-03-20T04:11:25;5.47;;;5.07;;
13218;SDS011;6674;49.152;11.918;2023-03-20T04:13:53;4.70;;;4.30;;
13218;SDS011;6674;49.152;11.918;2023-03-20T04:16:20;5.33;;;4.83;;
13218;SDS011;6674;49.152;11.918;2023-03-20T04:18:49;4.27;;;3.97;;
13218;SDS011;6674;49.152;11.918;2023-03-20T04:21:16;4.93;;;4.53;;
13218;SDS011;6674;49.152;11.918;2023-03-20T04:23:43;5.77;;;5.30;;
13218;SDS011;6674;49.152;11.918;2023-03-20T04:26:11;5.23;;;4.83;;
13218;SDS011;6674;49.152;11.918;2023-03-20T04:28:38;5.07;;;4.60;;
13218;SDS011;6674;49.152;11.918;2023-03-20T04:31:04;5.37;;;4.87;;
13218;SDS011;6674;49.152;11.918;2023-03-20T04:33:31;6.60;;;6.00;;
13218;SDS011;6674;49.152;11.918;2023-03-20T04:35:58;6.77;;;6.07;;
13218;SDS011;6674;49.152;11.918;2023-03-20T04:38:25;6.73;;;6.13;;
13218;SDS011;6674;49.152;11.918;2023-03-20T04:40:52;6.80;;;6.20;;
13218;SDS011;6674;49.152;11.918;2023-03-20T04:43:20;6.97;;;6.30;;
13218;SDS011;6674;49.152;11.918;2023-03-20T04:45:47;8.60;;;7.90;;
13218;SDS011;6674;49.152;11.918;2023-03-20T04:48:13;7.40;;;6.80;;
13218;SDS011;6674;49.152;11.918;2023-03-20T04:50:40;8.60;;;7.90;;
13218;SDS011;6674;49.152;11.918;2023-03-20T04:53:06;9.90;;;9.00;;
13218;SDS011;6674;49.152;11.918;2023-03-20T04:55:33;9.90;;;9.00;;
13218;SDS011;6674;49.152;11.918;2023-03-20T04:58:00;9.83;;;8.90;;
13218;SDS011;6674;49.152;11.918;2023-03-20T05:00:28;10.00;;;9.10;;
13218;SDS011;6674;49.152;11.918;2023-03-20T05:02:54;8.67;;;7.87;;
13218;SDS011;6674;49.152;11.918;2023-03-20T05:05:21;8.50;;;7.80;;
13218;SDS011;6674;49.152;11.918;2023-03-20T05:07:48;8.23;;;7.53;;
13218;SDS011;6674;49.152;11.918;2023-03-20T05:10:15;9.57;;;8.70;;
13218;SDS011;6674;49.152;11.918;2023-03-20T05:12:42;9.17;;;8.37;;
13218;SDS011;6674;49.152;11.918;2023-03-20T05:15:09;10.87;;;9.97;;
13218;SDS011;6674;49.152;11.918;2023-03-20T05:17:38;9.87;;;8.97;;
13218;SDS011;6674;49.152;11.918;2023-03-20T05:20:05;11.87;;;10.87;;
13218;SDS011;6674;49.152;11.918;2023-03-20T05:22:33;10.00;;;9.10;;
13218;SDS011;6674;49.152;11.918;2023-03-20T05:24:59;8.53;;;7.83;;
13218;SDS011;6674;49.152;11.918;2023-03-20T05:27:26;9.37;;;8.57;;
13218;SDS011;6674;49.152;11.918;2023-03-20T05:29:53;9.83;;;8.93;;
13218;SDS011;6674;49.152;11.918;2023-03-20T05:32:19;9.70;;;8.90;;
13218;SDS011;6674;49.152;11.918;2023-03-20T05:34:47;10.70;;;9.70;;
13218;SDS011;6674;49.152;11.918;2023-03-20T05:37:14;11.73;;;10.63;;
13218;SDS011;6674;49.152;11.918;2023-03-20T05:39:41;10.93;;;9.93;;
13218;SDS011;6674;49.152;11.918;2023-03-20T05:42:07;11.77;;;10.77;;
13218;SDS011;6674;49.152;11.918;2023-03-20T05:44:34;10.60;;;9.70;;
13218;SDS011;6674;49.152;11.918;2023-03-20T05:47:01;12.10;;;11.00;;
13218;SDS011;6674;49.152;11.918;2023-03-20T05:49:28;11.30;;;10.30;;
13218;SDS011;6674;49.152;11.918;2023-03-20T05:51:56;12.50;;;11.40;;
13218;SDS011;6674;49.152;11.918;2023-03-20T05:54:22;11.93;;;10.83;;
13218;SDS011;6674;49.152;11.918;2023-03-20T05:56:49;10.63;;;9.73;;
13218;SDS011;6674;49.152;11.918;2023-03-20T05:59:16;13.73;;;12.53;;
13218;SDS011;6674;49.152;11.918;2023-03-20T06:01:42;10.83;;;9.83;;
13218;SDS011;6674;49.152;11.918;2023-03-20T06:04:09;10.50;;;9.60;;
13218;SDS011;6674;49.152;11.918;2023-03-20T06:06:36;11.60;;;10.50;;
13218;SDS011;6674;49.152;11.918;2023-03-20T06:09:04;13.03;;;11.83;;
13218;SDS011;6674;49.152;11.918;2023-03-20T06:11:31;14.20;;;12.90;;
13218;SDS011;6674;49.152;11.918;2023-03-20T06:13:58;14.37;;;13.03;;
13218;SDS011;6674;49.152;11.918;2023-03-20T06:16:24;12.83;;;11.63;;
13218;SDS011;6674;49.152;11.918;2023-03-20T06:18:52;13.33;;;12.03;;
13218;SDS011;6674;49.152;11.918;2023-03-20T06:21:18;15.43;;;13.93;;
13218;SDS011;6674;49.152;11.918;2023-03-20T06:23:45;14.23;;;12.83;;
13218;SDS011;6674;49.152;11.918;2023-03-20T06:26:13;12.17;;;11.07;;
13218;SDS011;6674;49.152;11.918;2023-03-20T06:28:39;11.63;;;10.63;;
13218;SDS011;6674;49.152;11.918;2023-03-20T06:31:06;10.70;;;9.80;;
13218;SDS011;6674;49.152;11.918;2023-03-20T06:33:33;13.13;;;12.03;;
13218;SDS011;6674;49.152;11.918;2023-03-20T06:36:00;12.73;;;11.50;;
13218;SDS011;6674;49.152;11.918;2023-03-20T06:38:27;12.23;;;11.03;;
13218;SDS011;6674;49.152;11.918;2023-03-20T06:40:54;13.70;;;12.43;;
13218;SDS011;6674;49.152;11.918;2023-03-20T06:43:22;12.43;;;11.33;;
13218;SDS011;6674;49.152;11.918;2023-03-20T06:45:48;11.90;;;10.77;;
13218;SDS011;6674;49.152;11.918;2023-03-20T06:48:15;13.10;;;11.90;;
13218;SDS011;6674;49.152;11.918;2023-03-20T06:50:46;15.87;;;14.37;;
13218;SDS011;6674;49.152;11.918;2023-03-20T06:53:13;14.87;;;13.43;;
13218;SDS011;6674;49.152;11.918;2023-03-20T06:55:41;14.53;;;13.23;;
13218;SDS011;6674;49.152;11.918;2023-03-20T06:58:07;14.33;;;13.07;;
13218;SDS011;6674;49.152;11.918;2023-03-20T07:00:35;13.10;;;11.87;;
13218;SDS011;6674;49.152;11.918;2023-03-20T07:03:02;16.13;;;14.63;;
13218;SDS011;6674;49.152;11.918;2023-03-20T07:05:29;15.90;;;14.50;;
13218;SDS011;6674;49.152;11.918;2023-03-20T07:07:56;12.70;;;11.50;;
13218;SDS011;6674;49.152;11.918;2023-03-20T07:10:23;13.73;;;12.53;;
13218;SDS011;6674;49.152;11.918;2023-03-20T07:12:50;15.30;;;13.90;;
13218;SDS011;6674;49.152;11.918;2023-03-20T07:15:17;13.30;;;12.20;;
13218;SDS011;6674;49.152;11.918;2023-03-20T07:17:45;13.47;;;12.23;;
13218;SDS011;6674;49.152;11.918;2023-03-20T07:20:12;13.83;;;12.63;;
13218;SDS011;6674;49.152;11.918;2023-03-20T07:22:40;15.03;;;13.53;;
13218;SDS011;6674;49.152;11.918;2023-03-20T07:25:07;14.10;;;12.83;;
13218;SDS011;6674;49.152;11.918;2023-03-20T07:27:34;14.23;;;12.93;;
13218;SDS011;6674;49.152;11.918;2023-03-20T07:30:01;13.70;;;12.40;;
13218;SDS011;6674;49.152;11.918;2023-03-20T07:32:28;11.90;;;10.83;;
13218;SDS011;6674;49.152;11.918;2023-03-20T07:34:56;11.77;;;10.70;;
13218;SDS011;6674;49.152;11.918;2023-03-20T07:37:23;14.57;;;13.17;;
13218;SDS011;6674;49.152;11.918;2023-03-20T07:39:49;12.23;;;11.23;;
13218;SDS011;6674;49.152;11.918;2023-03-20T07:42:16;12.73;;;11.53;;
13218;SDS011;6674;49.152;11.918;2023-03-20T07:44:43;11.80;;;10.80;;
13218;SDS011;6674;49.152;11.918;2023-03-20T07:47:10;10.90;;;10.00;;
13218;SDS011;6674;49.152;11.918;2023-03-20T07:49:36;11.27;;;10.27;;
13218;SDS011;6674;49.152;11.918;2023-03-20T07:52:04;9.93;;;9.03;;
13218;SDS011;6674;49.152;11.918;2023-03-20T07:54:31;11.57;;;10.50;;
13218;SDS011;6674;49.152;11.918;2023-03-20T07:56:58;11.70;;;10.50;;
13218;SDS011;6674;49.152;11.918;2023-03-20T07:59:26;10.43;;;9.50;;
13218;SDS011;6674;49.152;11.918;2023-03-20T08:01:53;10.27;;;9.30;;
13218;SDS011;6674;49.152;11.918;2023-03-20T08:04:20;10.23;;;9.37;;
13218;SDS011;6674;49.152;11.918;2023-03-20T08:06:47;9.47;;;8.57;;
13218;SDS011;6674;49.152;11.918;2023-03-20T08:09:15;10.83;;;9.93;;
13218;SDS011;6674;49.152;11.918;2023-03-20T08:11:42;10.30;;;9.50;;
13218;SDS011;6674;49.152;11.918;2023-03-20T08:14:09;9.63;;;8.83;;
13218;SDS011;6674;49.152;11.918;2023-03-20T08:16:35;10.30;;;9.50;;
13218;SDS011;6674;49.152;11.918;2023-03-20T08:19:02;9.90;;;9.00;;
13218;SDS011;6674;49.152;11.918;2023-03-20T08:21:30;10.53;;;9.73;;
13218;SDS011;6674;49.152;11.918;2023-03-20T08:23:57;10.07;;;9.27;;
13218;SDS011;6674;49.152;11.918;2023-03-20T08:26:25;9.00;;;8.30;;
13218;SDS011;6674;49.152;11.918;2023-03-20T08:28:52;11.93;;;10.80;;
13218;SDS011;6674;49.152;11.918;2023-03-20T08:31:19;10.07;;;9.27;;
13218;SDS011;6674;49.152;11.918;2023-03-20T08:33:45;9.03;;;8.20;;
13218;SDS011;6674;49.152;11.918;2023-03-20T08:36:12;9.43;;;8.63;;
13218;SDS011;6674;49.152;11.918;2023-03-20T08:38:40;10.37;;;9.47;;
13218;SDS011;6674;49.152;11.918;2023-03-20T08:41:06;9.13;;;8.33;;
13218;SDS011;6674;49.152;11.918;2023-03-20T08:43:34;9.53;;;8.67;;
13218;SDS011;6674;49.152;11.918;2023-03-20T08:46:01;10.33;;;9.43;;
13218;SDS011;6674;49.152;11.918;2023-03-20T08:48:28;9.13;;;8.40;;
13218;SDS011;6674;49.152;11.918;2023-03-20T08:50:55;9.03;;;8.23;;
13218;SDS011;6674;49.152;11.918;2023-03-20T08:53:22;8.83;;;8.13;;
13218;SDS011;6674;49.152;11.918;2023-03-20T08:55:48;9.27;;;8.47;;
13218;SDS011;6674;49.152;11.918;2023-03-20T08:58:16;9.63;;;8.70;;
13218;SDS011;6674;49.152;11.918;2023-03-20T09:00:45;8.83;;;8.10;;
13218;SDS011;6674;49.152;11.918;2023-03-20T09:03:12;8.97;;;8.17;;
13218;SDS011;6674;49.152;11.918;2023-03-20T09:05:40;9.03;;;8.23;;
13218;SDS011;6674;49.152;11.918;2023-03-20T09:08:06;9.97;;;9.17;;
13218;SDS011;6674;49.152;11.918;2023-03-20T09:10:33;9.77;;;8.97;;
13218;SDS011;6674;49.152;11.918;2023-03-20T09:13:00;9.67;;;8.83;;
13218;SDS011;6674;49.152;11.918;2023-03-20T09:15:27;9.60;;;8.80;;
13218;SDS011;6674;49.152;11.918;2023-03-20T09:17:55;9.03;;;8.13;;
13218;SDS011;6674;49.152;11.918;2023-03-20T09:20:22;8.63;;;7.93;;
13218;SDS011;6674;49.152;11.918;2023-03-20T09:22:49;8.23;;;7.63;;
13218;SDS011;6674;49.152;11.918;2023-03-20T09:25:15;8.20;;;7.47;;
13218;SDS011;6674;49.152;11.918;2023-03-20T09:27:42;7.80;;;7.20;;
13218;SDS011;6674;49.152;11.918;2023-03-20T09:30:10;7.13;;;6.53;;
13218;SDS011;6674;49.152;11.918;2023-03-20T09:32:37;7.30;;;6.70;;
13218;SDS011;6674;49.152;11.918;2023-03-20T09:35:05;6.83;;;6.23;;
13218;SDS011;6674;49.152;11.918;2023-03-20T09:37:32;6.13;;;5.63;;
13218;SDS011;6674;49.152;11.918;2023-03-20T09:39:59;7.03;;;6.43;;
13218;SDS011;6674;49.152;11.918;2023-03-20T09:42:29;6.10;;;5.60;;
13218;SDS011;6674;49.152;11.918;2023-03-20T09:45:02;6.47;;;5.87;;
13218;SDS011;6674;49.152;11.918;2023-03-20T09:47:34;6.13;;;5.63;;
13218;SDS011;6674;49.152;11.918;2023-03-20T09:50:16;5.37;;;4.97;;
13218;SDS011;6674;49.152;11.918;2023-03-20T09:52:52;4.90;;;4.50;;
13218;SDS011;6674;49.152;11.918;2023-03-20T09:55:24;5.43;;;5.03;;
13218;SDS011;6674;49.152;11.918;2023-03-20T09:58:00;5.63;;;5.13;;
13218;SDS011;6674;49.152;11.918;2023-03-20T10:00:33;4.80;;;4.40;;
13218;SDS011;6674;49.152;11.918;2023-03-20T10:03:01;5.20;;;4.80;;
13218;SDS011;6674;49.152;11.918;2023-03-20T10:05:33;4.90;;;4.50;;
13218;SDS011;6674;49.152;11.918;2023-03-20T10:08:03;4.90;;;4.50;;
13218;SDS011;6674;49.152;11.918;2023-03-20T10:10:34;4.03;;;3.73;;
13218;SDS011;6674;49.152;11.918;2023-03-20T10:13:16;3.57;;;3.27;;
13218;SDS011;6674;49.152;11.918;2023-03-20T10:15:56;3.40;;;3.20;;
13218;SDS011;6674;49.152;11.918;2023-03-20T10:18:33;3.33;;;3.13;;
13218;SDS011;6674;49.152;11.918;2023-03-20T10:21:04;2.90;;;2.70;;
13218;SDS011;6674;49.152;11.918;2023-03-20T10:23:39;3.47;;;3.17;;
13218;SDS011;6674;49.152;11.918;2023-03-20T10:26:09;2.77;;;2.57;;
13218;SDS011;6674;49.152;11.918;2023-03-20T10:28:39;3.13;;;2.83;;
13218;SDS011;6674;49.152;11.918;2023-03-20T10:34:06;2.90;;;2.70;;
13218;SDS011;6674;49.152;11.918;2023-03-20T10:36:48;2.90;;;2.47;;
13218;SDS011;6674;49.152;11.918;2023-03-20T10:39:21;2.90;;;2.70;;
13218;SDS011;6674;49.152;11.918;2023-03-20T10:42:02;2.70;;;2.50;;
13218;SDS011;6674;49.152;11.918;2023-03-20T10:44:36;2.50;;;2.30;;
13218;SDS011;6674;49.152;11.918;2023-03-20T10:47:06;2.63;;;2.43;;
13218;SDS011;6674;49.152;11.918;2023-03-20T10:49:37;3.10;;;2.90;;
13218;SDS011;6674;49.152;11.918;2023-03-20T10:52:08;2.50;;;2.30;;
13218;SDS011;6674;49.152;11.918;2023-03-20T10:54:39;2.67;;;2.47;;
13218;SDS011;6674;49.152;11.918;2023-03-20T10:57:09;2.87;;;2.67;;
13218;SDS011;6674;49.152;11.918;2023-03-20T10:59:41;2.90;;;2.70;;
13218;SDS011;6674;49.152;11.918;2023-03-20T11:02:13;2.43;;;2.30;;
13218;SDS011;6674;49.152;11.918;2023-03-20T11:04:41;1.90;;;1.80;;
13218;SDS011;6674;49.152;11.918;2023-03-20T11:07:11;2.13;;;2.03;;
13218;SDS011;6674;49.152;11.918;2023-03-20T11:09:44;2.20;;;1.93;;
13218;SDS011;6674;49.152;11.918;2023-03-20T11:12:13;1.70;;;1.60;;
13218;SDS011;6674;49.152;11.918;2023-03-20T11:14:42;1.87;;;1.77;;
13218;SDS011;6674;49.152;11.918;2023-03-20T11:17:09;1.80;;;1.70;;
13218;SDS011;6674;49.152;11.918;2023-03-20T11:19:37;1.80;;;1.70;;
13218;SDS011;6674;49.152;11.918;2023-03-20T11:22:08;1.50;;;1.40;;
13218;SDS011;6674;49.152;11.918;2023-03-20T11:24:50;2.13;;;1.93;;
13218;SDS011;6674;49.152;11.918;2023-03-20T11:27:19;1.80;;;1.70;;
13218;SDS011;6674;49.152;11.918;2023-03-20T11:29:51;1.60;;;1.50;;
13218;SDS011;6674;49.152;11.918;2023-03-20T11:32:21;1.50;;;1.40;;
13218;SDS011;6674;49.152;11.918;2023-03-20T11:34:53;2.10;;;1.50;;
13218;SDS011;6674;49.152;11.918;2023-03-20T11:37:23;1.63;;;1.53;;
13218;SDS011;6674;49.152;11.918;2023-03-20T11:39:55;2.00;;;1.90;;
13218;SDS011;6674;49.152;11.918;2023-03-20T11:42:24;1.83;;;1.73;;
13218;SDS011;6674;49.152;11.918;2023-03-20T11:44:56;1.70;;;1.60;;
13218;SDS011;6674;49.152;11.918;2023-03-20T11:47:25;1.60;;;1.50;;
13218;SDS011;6674;49.152;11.918;2023-03-20T11:49:53;2.10;;;1.93;;
13218;SDS011;6674;49.152;11.918;2023-03-20T11:52:23;1.50;;;1.40;;
13218;SDS011;6674;49.152;11.918;2023-03-20T11:54:53;1.20;;;1.10;;
13218;SDS011;6674;49.152;11.918;2023-03-20T11:57:27;1.33;;;1.00;;
13218;SDS011;6674;49.152;11.918;2023-03-20T11:59:57;1.63;;;1.27;;
13218;SDS011;6674;49.152;11.918;2023-03-20T12:02:27;1.30;;;1.20;;
13218;SDS011;6674;49.152;11.918;2023-03-20T12:04:54;1.57;;;1.47;;
13218;SDS011;6674;49.152;11.918;2023-03-20T12:07:28;1.57;;;1.20;;
13218;SDS011;6674;49.152;11.918;2023-03-20T12:09:59;1.37;;;1.30;;
13218;SDS011;6674;49.152;11.918;2023-03-20T12:12:33;2.00;;;1.90;;
13218;SDS011;6674;49.152;11.918;2023-03-20T12:15:07;2.37;;;1.80;;
13218;SDS011;6674;49.152;11.918;2023-03-20T12:17:45;1.60;;;1.50;;
13218;SDS011;6674;49.152;11.918;2023-03-20T12:20:29;1.60;;;1.50;;
13218;SDS011;6674;49.152;11.918;2023-03-20T12:23:08;1.20;;;1.20;;
13218;SDS011;6674;49.152;11.918;2023-03-20T12:25:39;1.97;;;1.80;;
13218;SDS011;6674;49.152;11.918;2023-03-20T12:28:13;1.30;;;1.20;;
13218;SDS011;6674;49.152;11.918;2023-03-20T12:30:52;2.10;;;1.90;;
13218;SDS011;6674;49.152;11.918;2023-03-20T12:33:28;1.70;;;1.60;;
13218;SDS011;6674;49.152;11.918;2023-03-20T12:36:02;1.63;;;1.50;;
13218;SDS011;6674;49.152;11.918;2023-03-20T12:38:34;1.50;;;1.40;;
13218;SDS011;6674;49.152;11.918;2023-03-20T12:41:04;2.17;;;1.50;;
13218;SDS011;6674;49.152;11.918;2023-03-20T12:43:40;1.53;;;1.43;;
13218;SDS011;6674;49.152;11.918;2023-03-20T12:46:21;2.00;;;1.90;;
13218;SDS011;6674;49.152;11.918;2023-03-20T12:48:53;1.83;;;1.73;;
13218;SDS011;6674;49.152;11.918;2023-03-20T12:51:31;1.83;;;1.40;;
13218;SDS011;6674;49.152;11.918;2023-03-20T12:54:10;1.60;;;1.33;;
13218;SDS011;6674;49.152;11.918;2023-03-20T12:56:48;1.70;;;1.60;;
13218;SDS011;6674;49.152;11.918;2023-03-20T12:59:25;0.93;;;0.93;;
13218;SDS011;6674;49.152;11.918;2023-03-20T13:02:02;0.80;;;0.80;;
13218;SDS011;6674;49.152;11.918;2023-03-20T13:04:43;1.10;;;1.00;;
13218;SDS011;6674;49.152;11.918;2023-03-20T13:07:20;1.37;;;1.10;;
13218;SDS011;6674;49.152;11.918;2023-03-20T13:10:02;1.10;;;1.00;;
13218;SDS011;6674;49.152;11.918;2023-03-20T13:12:39;0.83;;;0.83;;
13218;SDS011;6674;49.152;11.918;2023-03-20T13:15:14;1.43;;;1.33;;
13218;SDS011;6674;49.152;11.918;2023-03-20T13:17:48;1.00;;;1.00;;
13218;SDS011;6674;49.152;11.918;2023-03-20T13:20:23;1.10;;;1.00;;
13218;SDS011;6674;49.152;11.918;2023-03-20T13:23:04;1.03;;;1.03;;
13218;SDS011;6674;49.152;11.918;2023-03-20T13:28:40;1.07;;;0.97;;
13218;SDS011;6674;49.152;11.918;2023-03-20T13:31:18;2.70;;;0.80;;
13218;SDS011;6674;49.152;11.918;2023-03-20T13:33:54;0.70;;;0.70;;
13218;SDS011;6674;49.152;11.918;2023-03-20T13:36:31;0.60;;;0.60;;
13218;SDS011;6674;49.152;11.918;2023-03-20T13:39:09;0.80;;;0.80;;
13218;SDS011;6674;49.152;11.918;2023-03-20T13:41:41;1.43;;;1.30;;
13218;SDS011;6674;49.152;11.918;2023-03-20T13:44:10;1.27;;;0.97;;
13218;SDS011;6674;49.152;11.918;2023-03-20T13:46:42;4.40;;;1.07;;
13218;SDS011;6674;49.152;11.918;2023-03-20T13:49:13;0.80;;;0.80;;
13218;SDS011;6674;49.152;11.918;2023-03-20T13:51:46;0.83;;;0.77;;
13218;SDS011;6674;49.152;11.918;2023-03-20T13:54:22;0.60;;;0.50;;
13218;SDS011;6674;49.152;11.918;2023-03-20T13:57:03;0.80;;;0.80;;
13218;SDS011;6674;49.152;11.918;2023-03-20T13:59:41;0.70;;;0.70;;
13218;SDS011;6674;49.152;11.918;2023-03-20T14:02:18;0.67;;;0.60;;
13218;SDS011;6674;49.152;11.918;2023-03-20T14:04:58;0.60;;;0.60;;
13218;SDS011;6674;49.152;11.918;2023-03-20T14:07:30;1.80;;;0.90;;
13218;SDS011;6674;49.152;11.918;2023-03-20T14:13:03;0.80;;;0.80;;
13218;SDS011;6674;49.152;11.918;2023-03-20T14:15:33;1.20;;;1.10;;
13218;SDS011;6674;49.152;11.918;2023-03-20T14:18:02;0.90;;;0.90;;
13218;SDS011;6674;49.152;11.918;2023-03-20T14:20:31;0.80;;;0.80;;
13218;SDS011;6674;49.152;11.918;2023-03-20T14:22:59;1.10;;;1.00;;
13218;SDS011;6674;49.152;11.918;2023-03-20T14:25:27;1.53;;;1.30;;
13218;SDS011;6674;49.152;11.918;2023-03-20T14:27:59;0.83;;;0.83;;
13218;SDS011;6674;49.152;11.918;2023-03-20T14:30:40;1.13;;;0.90;;
13218;SDS011;6674;49.152;11.918;2023-03-20T14:36:16;1.23;;;1.13;;
13218;SDS011;6674;49.152;11.918;2023-03-20T14:38:48;0.67;;;0.67;;
13218;SDS011;6674;49.152;11.918;2023-03-20T14:41:21;0.80;;;0.80;;
13218;SDS011;6674;49.152;11.918;2023-03-20T14:44:00;0.70;;;0.70;;
13218;SDS011;6674;49.152;11.918;2023-03-20T14:46:45;0.90;;;0.90;;
13218;SDS011;6674;49.152;11.918;2023-03-20T14:49:23;0.60;;;0.60;;
13218;SDS011;6674;49.152;11.918;2023-03-20T14:51:57;1.13;;;0.57;;
13218;SDS011;6674;49.152;11.918;2023-03-20T14:54:28;0.73;;;0.70;;
13218;SDS011;6674;49.152;11.918;2023-03-20T14:57:06;0.90;;;0.67;;
13218;SDS011;6674;49.152;11.918;2023-03-20T14:59:34;0.60;;;0.60;;
13218;SDS011;6674;49.152;11.918;2023-03-20T15:02:03;0.80;;;0.80;;
13218;SDS011;6674;49.152;11.918;2023-03-20T15:04:31;1.07;;;0.97;;
13218;SDS011;6674;49.152;11.918;2023-03-20T15:07:03;0.80;;;0.80;;
13218;SDS011;6674;49.152;11.918;2023-03-20T15:09:35;0.60;;;0.60;;
13218;SDS011;6674;49.152;11.918;2023-03-20T15:12:06;0.50;;;0.50;;
13218;SDS011;6674;49.152;11.918;2023-03-20T15:14:34;1.33;;;0.70;;
13218;SDS011;6674;49.152;11.918;2023-03-20T15:17:14;1.20;;;0.90;;
13218;SDS011;6674;49.152;11.918;2023-03-20T15:19:42;1.10;;;1.03;;
13218;SDS011;6674;49.152;11.918;2023-03-20T15:22:12;0.80;;;0.80;;